Terminal Aerodrome Forecast
Issued by NWS Cleveland, OH

Home | Current Version | Previous Version | Graphics & Text | Print | Product List | Glossary On
Versions: 1 2 3 4 5 6 7 8 9 10 11 12 13 14 15 16 17 18 19 20 21 22 23 24 25 26 27 28 29 30 31 32 33
000
FTUS41 KCLE 252300
TAFCLE
TAF
KCLE 252320Z 2600/2706 23010KT P6SM SCT025 BKN250
     FM260100 22005KT P6SM SCT025 BKN250
     FM260800 27005KT P6SM SCT025 OVC045
     FM261000 30007KT 5SM -RA BR OVC025
     FM261200 33009KT 2SM -RASN BR OVC008
     FM261600 32009KT 3SM -RASN BR OVC012
     FM262000 30009KT P6SM OVC025
     FM262200 28007KT P6SM OVC045=

USA.gov is the U.S. government's official web portal to all federal, state and local government web resources and services.